createdAt,value
2022-11-28T00:01:19.520Z,89.90
2022-11-28T00:03:47.756Z,89.50
2022-11-28T00:06:16.117Z,89.20
2022-11-28T00:08:44.636Z,88.50
2022-11-28T00:11:14.042Z,87.80
2022-11-28T00:13:42.611Z,87.60
2022-11-28T00:16:14.389Z,87.80
2022-11-28T00:18:43.567Z,88.20
2022-11-28T00:21:13.543Z,88.60
2022-11-28T00:23:42.395Z,89.10
2022-11-28T00:26:12.835Z,89.30
2022-11-28T00:28:40.719Z,89.50
2022-11-28T00:31:13.672Z,89.70
2022-11-28T00:33:43.007Z,90.60
2022-11-28T00:36:12.354Z,90.90
2022-11-28T00:38:40.607Z,90.50
2022-11-28T00:41:10.120Z,89.90
2022-11-28T00:43:38.653Z,90.00
2022-11-28T00:46:07.050Z,89.60
2022-11-28T00:48:35.891Z,88.80
2022-11-28T00:51:09.685Z,88.80
2022-11-28T00:53:38.446Z,88.50
2022-11-28T00:56:07.020Z,88.80
2022-11-28T00:58:35.459Z,88.90
2022-11-28T01:01:09.623Z,88.60
2022-11-28T01:03:37.550Z,89.20
2022-11-28T01:06:08.168Z,89.40
2022-11-28T01:08:36.722Z,89.70
2022-11-28T01:11:05.346Z,89.70
2022-11-28T01:13:33.232Z,89.70
2022-11-28T01:16:01.466Z,89.80
2022-11-28T01:18:29.320Z,90.10
2022-11-28T01:20:57.143Z,90.10
2022-11-28T01:23:28.919Z,91.00
2022-11-28T01:25:56.764Z,90.80
2022-11-28T01:28:24.678Z,90.40
2022-11-28T01:30:52.537Z,91.00
2022-11-28T01:33:20.398Z,90.80
2022-11-28T01:35:55.814Z,91.30
2022-11-28T01:38:24.163Z,91.60
2022-11-28T01:40:53.768Z,91.60
2022-11-28T01:43:21.749Z,91.30
2022-11-28T01:45:49.699Z,90.80
2022-11-28T01:48:27.473Z,90.40
2022-11-28T01:50:59.436Z,89.90
2022-11-28T01:53:29.556Z,89.30
2022-11-28T01:56:01.740Z,89.00
2022-11-28T01:58:31.564Z,89.00
2022-11-28T02:00:59.556Z,88.50
2022-11-28T02:03:31.591Z,88.30
2022-11-28T02:05:59.456Z,87.60
2022-11-28T02:08:27.328Z,86.30
2022-11-28T02:11:19.445Z,83.00
2022-11-28T02:13:57.658Z,82.80
2022-11-28T02:16:56.312Z,83.30
2022-11-28T02:19:54.021Z,84.40
2022-11-28T02:22:26.325Z,85.50
2022-11-28T02:25:04.248Z,86.50
2022-11-28T02:28:07.435Z,87.00
2022-11-28T02:30:43.103Z,87.80
2022-11-28T02:33:21.715Z,88.30
2022-11-28T02:36:00.918Z,88.30
2022-11-28T02:38:42.394Z,87.20
2022-11-28T02:41:22.231Z,86.60
2022-11-28T02:43:55.243Z,84.50
2022-11-28T02:46:29.486Z,83.70
2022-11-28T02:49:01.077Z,84.40
2022-11-28T02:51:35.015Z,85.40
2022-11-28T02:54:04.715Z,86.60
2022-11-28T02:56:32.617Z,87.20
2022-11-28T02:59:00.487Z,87.60
2022-11-28T03:01:32.672Z,88.00
2022-11-28T03:04:16.186Z,88.40
2022-11-28T03:06:50.915Z,88.20
2022-11-28T03:09:46.477Z,88.80
2022-11-28T03:12:25.923Z,88.20
2022-11-28T03:14:56.260Z,86.00
2022-11-28T03:17:32.864Z,85.80
2022-11-28T03:20:18.286Z,86.30
2022-11-28T03:22:54.687Z,87.20
2022-11-28T03:25:28.562Z,86.90
2022-11-28T03:28:02.146Z,83.90
2022-11-28T03:30:33.880Z,81.90
2022-11-28T03:33:03.535Z,81.30
2022-11-28T03:35:37.634Z,81.80
2022-11-28T03:38:10.158Z,84.00
2022-11-28T03:40:43.536Z,85.10
2022-11-28T03:43:16.969Z,86.40
2022-11-28T03:45:48.614Z,86.50
2022-11-28T03:48:22.595Z,87.00
2022-11-28T03:50:56.578Z,85.00
2022-11-28T03:53:28.544Z,83.40
2022-11-28T03:56:01.038Z,84.10
2022-11-28T03:58:33.188Z,83.40
2022-11-28T04:01:16.082Z,83.00
2022-11-28T04:03:52.851Z,83.20
2022-11-28T04:06:27.179Z,84.50
2022-11-28T04:09:01.640Z,85.80
2022-11-28T04:11:34.598Z,86.70
2022-11-28T04:14:09.263Z,87.30
2022-11-28T04:16:43.498Z,87.80
2022-11-28T04:19:17.194Z,87.40
2022-11-28T04:21:55.491Z,83.00
2022-11-28T04:24:27.158Z,82.30
2022-11-28T04:26:57.828Z,82.90
2022-11-28T04:29:28.240Z,83.70
2022-11-28T04:31:58.753Z,84.20
2022-11-28T04:34:28.563Z,85.00
2022-11-28T04:37:04.263Z,85.50
2022-11-28T04:39:37.807Z,85.20
2022-11-28T04:42:11.621Z,85.80
2022-11-28T04:44:44.882Z,85.80
2022-11-28T04:47:13.120Z,86.10
2022-11-28T04:49:41.264Z,85.90
2022-11-28T04:52:16.760Z,85.80
2022-11-28T04:54:53.736Z,85.30
2022-11-28T04:57:27.707Z,84.50
2022-11-28T04:59:57.313Z,83.40
2022-11-28T05:02:25.970Z,82.70
2022-11-28T05:04:55.668Z,82.10
2022-11-28T05:07:25.132Z,82.70
2022-11-28T05:09:53.061Z,83.30
2022-11-28T05:12:21.020Z,83.50
2022-11-28T05:14:48.843Z,84.30
2022-11-28T05:17:16.680Z,85.10
2022-11-28T05:19:44.582Z,85.70
2022-11-28T05:22:12.404Z,86.20
2022-11-28T05:24:41.663Z,86.80
2022-11-28T05:27:11.395Z,87.10
2022-11-28T05:29:44.879Z,87.20
2022-11-28T05:32:15.957Z,87.00
2022-11-28T05:34:44.008Z,86.80
2022-11-28T05:37:12.023Z,85.80
2022-11-28T05:39:41.589Z,84.70
2022-11-28T05:42:09.560Z,84.70
2022-11-28T05:44:38.326Z,85.10
2022-11-28T05:47:06.225Z,85.60
2022-11-28T05:49:34.031Z,85.70
2022-11-28T05:52:01.838Z,84.60
2022-11-28T05:54:30.566Z,83.20
2022-11-28T05:56:59.766Z,83.90
2022-11-28T05:59:27.831Z,85.00
2022-11-28T06:01:55.759Z,85.40
2022-11-28T06:04:23.702Z,86.30
2022-11-28T06:06:52.133Z,86.50
2022-11-28T06:09:24.530Z,86.70
2022-11-28T06:11:53.618Z,86.70
2022-11-28T06:14:22.782Z,86.40
2022-11-28T06:16:50.844Z,86.40
2022-11-28T06:19:18.733Z,85.90
2022-11-28T06:21:46.730Z,85.80
2022-11-28T06:24:14.634Z,86.10
2022-11-28T06:26:42.451Z,85.20
2022-11-28T06:29:10.323Z,84.70
2022-11-28T06:31:39.583Z,84.10
2022-11-28T06:34:07.479Z,83.40
2022-11-28T06:36:35.283Z,83.60
2022-11-28T06:39:03.106Z,83.20
2022-11-28T06:41:31.039Z,82.80
2022-11-28T06:43:58.912Z,82.50
2022-11-28T06:46:26.802Z,82.90
2022-11-28T06:48:56.096Z,82.10
2022-11-28T06:51:23.915Z,81.50
2022-11-28T06:53:51.884Z,81.00
2022-11-28T06:56:21.437Z,79.60
2022-11-28T06:58:55.056Z,79.40
2022-11-28T07:01:24.451Z,79.70
2022-11-28T07:03:54.347Z,80.00
2022-11-28T07:06:24.950Z,79.90
2022-11-28T07:08:53.552Z,80.70
2022-11-28T07:11:24.796Z,81.70
2022-11-28T07:13:53.314Z,82.60
2022-11-28T07:16:23.428Z,82.90
2022-11-28T07:18:52.203Z,83.80
2022-11-28T07:21:20.560Z,84.00
2022-11-28T07:23:49.959Z,84.00
2022-11-28T07:26:21.341Z,84.20
2022-11-28T07:28:50.014Z,84.80
2022-11-28T07:31:19.284Z,84.60
2022-11-28T07:33:48.891Z,84.30
2022-11-28T07:36:18.443Z,84.30
2022-11-28T07:38:49.789Z,83.60
2022-11-28T07:41:21.282Z,83.60
2022-11-28T07:43:55.290Z,83.20
2022-11-28T07:46:23.809Z,83.60
2022-11-28T07:48:52.049Z,83.60
2022-11-28T07:51:21.990Z,82.90
2022-11-28T07:53:51.209Z,80.70
2022-11-28T07:56:20.822Z,78.60
2022-11-28T07:58:49.072Z,76.40
2022-11-28T08:01:18.886Z,74.00
2022-11-28T08:03:47.627Z,74.10
2022-11-28T08:06:16.645Z,73.70
2022-11-28T08:08:45.502Z,72.60
2022-11-28T08:11:15.792Z,71.90
2022-11-28T08:13:44.083Z,71.30
2022-11-28T08:16:15.205Z,71.50
2022-11-28T08:18:43.531Z,72.40
2022-11-28T08:21:13.533Z,72.80
2022-11-28T08:23:42.191Z,73.40
2022-11-28T08:26:13.361Z,74.60
2022-11-28T08:28:43.567Z,74.80
2022-11-28T08:31:12.355Z,73.60
2022-11-28T08:33:40.725Z,74.60
2022-11-28T08:36:10.187Z,75.70
2022-11-28T08:38:38.770Z,76.30
2022-11-28T08:41:09.719Z,76.80
2022-11-28T08:43:38.484Z,77.20
2022-11-28T08:46:10.577Z,77.30
2022-11-28T08:48:39.828Z,77.60
2022-11-28T08:51:09.452Z,77.60
2022-11-28T08:53:38.314Z,77.30
2022-11-28T08:56:06.637Z,77.20
2022-11-28T08:58:34.514Z,78.10
2022-11-28T09:01:02.427Z,78.00
2022-11-28T09:03:31.664Z,78.00
2022-11-28T09:06:02.979Z,78.10
2022-11-28T09:08:30.838Z,79.00
2022-11-28T09:10:58.676Z,79.20
2022-11-28T09:13:26.506Z,80.10
2022-11-28T09:15:55.294Z,79.20
2022-11-28T09:18:23.138Z,78.30
2022-11-28T09:20:57.660Z,77.20
2022-11-28T09:23:25.475Z,77.80
2022-11-28T09:25:53.296Z,77.60
2022-11-28T09:28:21.157Z,77.90
2022-11-28T09:30:49.469Z,77.10
2022-11-28T09:33:17.332Z,76.50
2022-11-28T09:35:45.148Z,76.40
2022-11-28T09:38:14.424Z,76.20
2022-11-28T09:40:44.785Z,75.40
2022-11-28T09:43:17.539Z,75.40
2022-11-28T09:45:46.798Z,74.20
2022-11-28T09:48:25.881Z,73.00
2022-11-28T09:50:58.454Z,72.80
2022-11-28T09:53:33.415Z,73.40
2022-11-28T09:56:06.019Z,73.00
2022-11-28T09:58:42.429Z,72.00
2022-11-28T10:01:17.989Z,71.90
2022-11-28T10:03:53.790Z,70.40
2022-11-28T10:06:27.079Z,71.20
2022-11-28T10:09:13.635Z,71.70
2022-11-28T10:11:52.414Z,71.50
2022-11-28T10:14:50.043Z,71.90
2022-11-28T10:17:29.908Z,71.50
2022-11-28T10:20:02.918Z,70.80
2022-11-28T10:22:38.431Z,70.70
2022-11-28T10:25:16.643Z,70.90
2022-11-28T10:27:44.543Z,70.40
2022-11-28T10:30:21.557Z,71.30
2022-11-28T10:32:56.551Z,72.30
2022-11-28T10:35:31.063Z,70.90
2022-11-28T10:37:58.980Z,70.80
2022-11-28T10:40:38.094Z,70.90
2022-11-28T10:43:11.908Z,69.60
2022-11-28T10:45:49.450Z,69.90
2022-11-28T10:48:39.508Z,69.90
2022-11-28T10:51:18.154Z,69.40
2022-11-28T10:53:52.977Z,70.20
2022-11-28T10:56:34.952Z,71.10
2022-11-28T10:59:12.942Z,71.10
2022-11-28T11:01:45.918Z,69.70
2022-11-28T11:04:20.577Z,69.10
2022-11-28T11:07:09.040Z,69.10
2022-11-28T11:09:39.183Z,68.50
2022-11-28T11:12:15.748Z,69.30
2022-11-28T11:14:44.766Z,70.00
2022-11-28T11:17:35.449Z,71.60
2022-11-28T11:20:06.742Z,71.70
2022-11-28T11:22:35.235Z,72.50
2022-11-28T11:25:11.208Z,71.80
2022-11-28T11:27:48.594Z,72.70
2022-11-28T11:30:27.318Z,72.70
2022-11-28T11:32:56.235Z,72.70
2022-11-28T11:35:27.301Z,71.50
2022-11-28T11:38:14.716Z,72.50
2022-11-28T11:40:42.560Z,72.60
2022-11-28T11:43:28.118Z,72.80
2022-11-28T11:46:07.826Z,72.40
2022-11-28T11:48:37.382Z,72.80
2022-11-28T11:51:06.154Z,74.40
2022-11-28T11:53:34.272Z,72.10
2022-11-28T11:56:04.222Z,72.00
2022-11-28T11:58:41.430Z,71.00
2022-11-28T12:01:11.823Z,72.10
2022-11-28T12:03:42.855Z,70.70
2022-11-28T12:06:15.596Z,71.10
2022-11-28T12:08:50.232Z,71.20
2022-11-28T12:11:22.968Z,71.10
2022-11-28T12:13:52.598Z,70.50
2022-11-28T12:16:33.705Z,71.40
2022-11-28T12:19:11.576Z,70.70
2022-11-28T12:21:49.372Z,70.60
2022-11-28T12:24:22.019Z,69.80
2022-11-28T12:26:52.713Z,71.20
2022-11-28T12:29:37.784Z,72.50
2022-11-28T12:32:29.191Z,73.10
2022-11-28T12:35:11.117Z,73.10
2022-11-28T12:40:51.807Z,72.30
2022-11-28T12:43:31.453Z,72.90
2022-11-28T12:46:10.976Z,72.80
2022-11-28T12:48:53.209Z,71.60
2022-11-28T12:51:34.379Z,70.30
2022-11-28T12:54:25.678Z,70.60
2022-11-28T12:57:00.770Z,70.80
2022-11-28T12:59:34.953Z,71.50
2022-11-28T13:02:21.539Z,72.00
2022-11-28T13:05:22.696Z,71.90
2022-11-28T13:08:11.387Z,72.00
2022-11-28T13:10:46.540Z,70.60
2022-11-28T13:13:21.018Z,70.80
2022-11-28T13:15:59.891Z,71.00
2022-11-28T13:18:41.089Z,72.60
2022-11-28T13:21:19.219Z,73.40
2022-11-28T13:23:53.336Z,73.00
2022-11-28T13:26:37.456Z,73.40
2022-11-28T13:29:14.005Z,73.80
2022-11-28T13:31:49.556Z,74.40
2022-11-28T13:34:20.447Z,73.70
2022-11-28T13:39:49.270Z,73.50
2022-11-28T13:42:59.739Z,72.90
2022-11-28T13:45:28.264Z,73.60
2022-11-28T13:48:00.339Z,73.70
2022-11-28T13:50:41.943Z,73.70
2022-11-28T13:53:25.691Z,74.40
2022-11-28T13:56:16.200Z,73.30
2022-11-28T13:58:48.267Z,74.40
2022-11-28T14:01:18.757Z,74.70
2022-11-28T14:03:49.151Z,74.70
2022-11-28T14:06:22.340Z,74.90
2022-11-28T14:09:00.254Z,75.30
2022-11-28T14:11:47.420Z,75.00
2022-11-28T14:14:36.970Z,75.20
2022-11-28T14:17:19.875Z,75.30
2022-11-28T14:20:00.618Z,75.50
2022-11-28T14:22:47.621Z,75.70
2022-11-28T14:25:21.170Z,75.20
2022-11-28T14:27:54.623Z,75.10
2022-11-28T14:30:31.341Z,75.00
2022-11-28T14:33:01.699Z,75.20
2022-11-28T14:36:04.412Z,75.70
2022-11-28T14:38:45.115Z,75.50
2022-11-28T14:41:15.127Z,75.10
2022-11-28T14:43:45.998Z,75.60
2022-11-28T14:46:29.183Z,75.80
2022-11-28T14:49:22.605Z,76.90
2022-11-28T14:52:38.894Z,77.80
2022-11-28T14:55:19.767Z,78.90
2022-11-28T14:58:00.561Z,77.80
2022-11-28T15:00:32.540Z,77.50
2022-11-28T15:03:22.914Z,78.00
2022-11-28T15:05:52.614Z,78.60
2022-11-28T15:08:47.045Z,78.70
2022-11-28T15:11:33.932Z,79.10
2022-11-28T15:14:09.964Z,79.30
2022-11-28T15:16:45.239Z,79.20
2022-11-28T15:19:24.423Z,79.10
2022-11-28T15:21:54.758Z,79.00
2022-11-28T15:24:28.438Z,79.30
2022-11-28T15:26:59.351Z,78.80
2022-11-28T15:29:29.655Z,78.60
2022-11-28T15:31:59.510Z,79.30
2022-11-28T15:34:29.800Z,80.30
2022-11-28T15:37:00.565Z,81.30
2022-11-28T15:39:34.733Z,82.00
2022-11-28T15:42:05.899Z,82.20
2022-11-28T15:44:34.003Z,83.40
2022-11-28T15:47:02.004Z,85.10
2022-11-28T15:49:31.784Z,85.60
2022-11-28T15:52:00.973Z,86.10
2022-11-28T15:54:38.361Z,85.50
2022-11-28T15:57:17.791Z,84.70
2022-11-28T15:59:45.805Z,84.80
2022-11-28T16:02:17.454Z,85.10
2022-11-28T16:04:46.435Z,86.00
2022-11-28T16:07:17.087Z,86.50
2022-11-28T16:09:56.677Z,86.30
2022-11-28T16:12:26.409Z,86.70
2022-11-28T16:14:58.774Z,86.80
2022-11-28T16:17:29.709Z,87.20
2022-11-28T16:19:59.236Z,87.30
2022-11-28T16:22:33.106Z,88.40
2022-11-28T16:25:13.403Z,89.00
2022-11-28T16:27:45.496Z,89.60
2022-11-28T16:30:29.782Z,90.60
2022-11-28T16:32:58.747Z,91.30
2022-11-28T16:35:28.896Z,92.10
2022-11-28T16:38:14.459Z,92.30
2022-11-28T16:40:42.890Z,92.80
2022-11-28T16:43:23.397Z,92.60
2022-11-28T16:45:59.959Z,93.00
2022-11-28T16:48:30.092Z,92.90
2022-11-28T16:51:35.629Z,93.30
2022-11-28T16:54:31.886Z,94.10
2022-11-28T16:57:11.397Z,93.60
2022-11-28T16:59:40.758Z,94.50
2022-11-28T17:02:15.860Z,95.20
2022-11-28T17:04:43.981Z,95.70
2022-11-28T17:07:14.050Z,95.80
2022-11-28T17:09:42.355Z,94.00
2022-11-28T17:12:19.684Z,93.30
2022-11-28T17:14:48.855Z,93.20
2022-11-28T17:17:18.574Z,88.80
2022-11-28T17:19:47.459Z,87.00
2022-11-28T17:22:18.116Z,87.30
2022-11-28T17:24:47.346Z,86.20
2022-11-28T17:27:15.712Z,83.20
2022-11-28T17:29:44.130Z,81.70
2022-11-28T17:32:14.721Z,80.10
2022-11-28T17:34:43.272Z,82.20
2022-11-28T17:37:11.370Z,83.60
2022-11-28T17:39:39.744Z,84.30
2022-11-28T17:42:07.593Z,83.90
2022-11-28T17:44:37.569Z,84.20
2022-11-28T17:47:05.810Z,83.60
2022-11-28T17:49:34.990Z,83.30
2022-11-28T17:52:02.861Z,83.20
2022-11-28T17:54:30.706Z,83.30
2022-11-28T17:56:58.936Z,82.80
2022-11-28T17:59:27.525Z,82.50
2022-11-28T18:01:55.602Z,83.00
2022-11-28T18:04:23.511Z,83.30
2022-11-28T18:06:52.813Z,83.60
2022-11-28T18:09:20.797Z,83.50
2022-11-28T18:11:48.638Z,84.30
2022-11-28T18:14:19.613Z,84.50
2022-11-28T18:16:47.921Z,84.90
2022-11-28T18:19:15.959Z,85.10
2022-11-28T18:21:43.791Z,85.30
2022-11-28T18:24:13.011Z,85.60
2022-11-28T18:26:41.243Z,85.90
2022-11-28T18:29:09.162Z,85.90
2022-11-28T18:31:37.101Z,85.80
2022-11-28T18:34:06.943Z,86.30
2022-11-28T18:36:36.736Z,86.90
2022-11-28T18:39:06.823Z,87.10
2022-11-28T18:41:36.067Z,87.60
2022-11-28T18:44:05.858Z,88.00
2022-11-28T18:46:34.979Z,88.00
2022-11-28T18:49:03.342Z,88.60
2022-11-28T18:51:32.895Z,89.10
2022-11-28T18:54:02.924Z,89.40
2022-11-28T18:56:31.337Z,89.60
2022-11-28T18:59:00.567Z,89.70
2022-11-28T19:01:30.740Z,90.20
2022-11-28T19:04:00.613Z,90.30
2022-11-28T19:06:28.830Z,90.60
2022-11-28T19:09:00.503Z,91.40
2022-11-28T19:11:29.452Z,91.80
2022-11-28T19:13:58.035Z,91.90
2022-11-28T19:16:28.823Z,92.20
2022-11-28T19:18:57.066Z,92.40
2022-11-28T19:21:26.607Z,92.80
2022-11-28T19:23:56.459Z,93.00
2022-11-28T19:26:25.982Z,92.90
2022-11-28T19:28:54.508Z,93.30
2022-11-28T19:31:24.528Z,93.40
2022-11-28T19:34:01.213Z,93.50
2022-11-28T19:36:30.574Z,93.60
2022-11-28T19:38:59.194Z,93.90
2022-11-28T19:41:27.958Z,93.90
2022-11-28T19:43:55.998Z,94.10
2022-11-28T19:46:24.330Z,93.90
2022-11-28T19:48:52.194Z,93.50
2022-11-28T19:51:21.367Z,93.60
2022-11-28T19:53:49.255Z,93.50
2022-11-28T19:56:19.425Z,93.70
2022-11-28T19:58:48.208Z,93.50
2022-11-28T20:01:17.876Z,93.80
2022-11-28T20:03:47.692Z,94.20
2022-11-28T20:06:16.800Z,94.80
2022-11-28T20:08:46.744Z,95.70
2022-11-28T20:11:16.736Z,96.30
2022-11-28T20:13:45.359Z,96.90
2022-11-28T20:16:14.910Z,97.10
2022-11-28T20:18:44.626Z,97.40
2022-11-28T20:21:14.125Z,97.80
2022-11-28T20:23:42.490Z,98.10
2022-11-28T20:26:12.931Z,98.00
2022-11-28T20:28:42.515Z,98.30
2022-11-28T20:31:19.233Z,99.40
2022-11-28T20:33:47.395Z,99.90
2022-11-28T20:36:16.971Z,99.90
2022-11-28T20:38:44.879Z,99.90
2022-11-28T20:41:15.982Z,99.90
2022-11-28T20:43:44.387Z,99.90
2022-11-28T20:46:13.921Z,99.90
2022-11-28T20:48:42.319Z,99.90
2022-11-28T20:51:10.764Z,99.90
2022-11-28T20:53:41.159Z,99.90
2022-11-28T20:56:11.110Z,99.90
2022-11-28T20:58:40.308Z,99.90
2022-11-28T21:01:08.777Z,99.90
2022-11-28T21:03:37.007Z,99.90
2022-11-28T21:06:04.931Z,99.90
2022-11-28T21:08:33.751Z,99.90
2022-11-28T21:11:05.791Z,99.90
2022-11-28T21:13:33.663Z,99.90
2022-11-28T21:16:07.936Z,99.90
2022-11-28T21:18:37.211Z,99.90
2022-11-28T21:21:08.662Z,99.90
2022-11-28T21:23:36.911Z,99.90
2022-11-28T21:26:06.441Z,99.90
2022-11-28T21:28:35.576Z,99.90
2022-11-28T21:31:08.314Z,99.90
2022-11-28T21:33:36.481Z,99.90
2022-11-28T21:36:05.219Z,99.90
2022-11-28T21:38:33.906Z,99.90
2022-11-28T21:41:02.228Z,99.90
2022-11-28T21:43:30.152Z,99.90
2022-11-28T21:46:02.377Z,99.90
2022-11-28T21:48:32.355Z,99.90
2022-11-28T21:51:01.219Z,99.90
2022-11-28T21:53:29.731Z,99.90
2022-11-28T21:56:00.529Z,99.90
2022-11-28T21:58:28.952Z,99.90
2022-11-28T22:00:57.501Z,99.90
2022-11-28T22:03:25.857Z,99.90
2022-11-28T22:06:00.907Z,99.90
2022-11-28T22:08:28.902Z,99.90
2022-11-28T22:11:00.815Z,99.90
2022-11-28T22:13:28.839Z,99.90
2022-11-28T22:15:57.150Z,99.90
2022-11-28T22:18:25.286Z,99.90
2022-11-28T22:20:53.330Z,99.90
2022-11-28T22:23:22.564Z,99.90
2022-11-28T22:25:53.563Z,99.90
2022-11-28T22:28:21.559Z,99.90
2022-11-28T22:30:49.378Z,99.90
2022-11-28T22:33:17.217Z,99.90
2022-11-28T22:35:45.518Z,99.90
2022-11-28T22:38:13.521Z,99.90
2022-11-28T22:40:42.693Z,99.90
2022-11-28T22:43:10.598Z,99.90
2022-11-28T22:45:38.452Z,99.90
2022-11-28T22:48:07.192Z,99.90
2022-11-28T22:50:39.981Z,99.90
2022-11-28T22:53:08.047Z,99.90
2022-11-28T22:55:36.434Z,99.90
2022-11-28T22:58:05.626Z,99.90
2022-11-28T23:00:33.466Z,99.90
2022-11-28T23:03:01.477Z,99.90
2022-11-28T23:05:29.415Z,99.90
2022-11-28T23:07:57.285Z,99.90
2022-11-28T23:10:25.379Z,99.90
2022-11-28T23:12:53.185Z,99.90
2022-11-28T23:15:22.406Z,99.90
2022-11-28T23:17:50.715Z,99.90
2022-11-28T23:20:19.094Z,99.90
2022-11-28T23:22:46.928Z,99.90
2022-11-28T23:25:15.331Z,99.90
2022-11-28T23:27:43.166Z,99.90
2022-11-28T23:30:11.696Z,99.90
2022-11-28T23:32:40.901Z,99.90
2022-11-28T23:35:09.294Z,99.90
2022-11-28T23:37:39.775Z,99.90
2022-11-28T23:40:08.861Z,99.90
2022-11-28T23:42:36.694Z,99.90
2022-11-28T23:45:05.359Z,99.90
2022-11-28T23:47:33.223Z,99.90
2022-11-28T23:50:02.410Z,99.90
2022-11-28T23:52:30.242Z,99.90
2022-11-28T23:54:58.051Z,99.90
2022-11-28T23:57:25.909Z,99.90
2022-11-28T23:59:53.742Z,99.90
